Time;durP1;ratioP1;P1;durP2;ratioP2;P2;SDS_P1;SDS_P2;PMS_P1;PMS_P2;Temp;Humidity;BMP_temperature;BMP_pressure;BME280_temperature;BME280_humidity;BME280_pressure;Samples;Min_cycle;Max_cycle;Signal;HPM_P1;HPM_P2
2023/07/18 00:00:14;;;;;;;2.30;1.60;;;21.30;61.60;;;;;;5029186;28;20049;-35
2023/07/18 00:02:42;;;;;;;2.03;1.63;;;22.00;66.40;;;;;;5028012;28;20472;-39
2023/07/18 00:05:12;;;;;;;3.95;1.70;;;21.30;77.80;;;;;;5028749;28;20083;-37
2023/07/18 00:07:39;;;;;;;2.88;1.58;;;21.10;77.50;;;;;;5028632;28;20053;-38
2023/07/18 00:10:07;;;;;;;3.03;1.75;;;21.50;61.70;;;;;;5029077;28;20046;-36
2023/07/18 00:12:34;;;;;;;2.40;1.50;;;;;;;;;;5028649;28;20052;-36
2023/07/18 00:15:03;;;;;;;2.42;1.60;;;21.60;66.30;;;;;;5028796;28;20399;-37
2023/07/18 00:17:31;;;;;;;2.10;1.60;;;;;;;;;;5028482;28;20053;-37
2023/07/18 00:19:58;;;;;;;2.22;1.55;;;21.50;61.80;;;;;;5028762;28;20499;-37
2023/07/18 00:22:25;;;;;;;2.95;1.70;;;;;;;;;;5028634;28;20057;-39
2023/07/18 00:24:52;;;;;;;3.35;1.63;;;;;;;;;;5028536;28;20053;-35
2023/07/18 00:27:19;;;;;;;3.50;1.83;;;;;;;;;;5028518;28;20512;-39
2023/07/18 00:29:46;;;;;;;2.88;1.88;;;;;;;;;;5028644;28;20482;-35
2023/07/18 00:32:14;;;;;;;3.90;1.75;;;21.40;78.30;;;;;;5028153;28;20469;-40
2023/07/18 00:34:44;;;;;;;2.47;1.70;;;21.00;78.00;;;;;;5028340;28;20065;-40
2023/07/18 00:37:11;;;;;;;2.47;1.70;;;21.10;64.30;;;;;;5028118;28;20125;-37
2023/07/18 00:39:38;;;;;;;2.90;1.60;;;;;;;;;;5028512;28;20128;-36
2023/07/18 00:42:06;;;;;;;3.03;1.63;;;21.00;78.20;;;;;;5028505;28;20134;-38
2023/07/18 00:44:33;;;;;;;2.70;1.80;;;;;;;;;;5028121;28;20041;-37
2023/07/18 00:47:00;;;;;;;2.47;1.70;;;;;;;;;;5027961;28;20060;-39
2023/07/18 00:49:28;;;;;;;2.85;1.63;;;20.90;78.00;;;;;;5028282;28;20124;-36
2023/07/18 00:51:55;;;;;;;2.55;1.60;;;;;;;;;;5028105;28;20432;-35
2023/07/18 00:54:22;;;;;;;2.90;1.70;;;21.20;68.20;;;;;;5027916;28;20504;-39
2023/07/18 00:56:49;;;;;;;2.40;1.60;;;;;;;;;;5027864;28;20053;-40
2023/07/18 00:59:16;;;;;;;3.78;1.90;;;;;;;;;;5028237;28;20137;-39
2023/07/18 01:01:43;;;;;;;2.20;1.50;;;;;;;;;;5028053;28;20140;-37
2023/07/18 01:04:10;;;;;;;4.32;1.70;;;21.40;77.90;;;;;;5028039;28;20133;-40
2023/07/18 01:06:38;;;;;;;3.58;2.10;;;21.30;61.60;;;;;;5027988;28;20053;-37
2023/07/18 01:09:06;;;;;;;3.50;1.77;;;;;;;;;;5028033;28;20057;-39
2023/07/18 01:11:34;;;;;;;2.25;1.60;;;20.90;72.10;;;;;;5027825;28;20049;-40
2023/07/18 01:14:00;;;;;;;2.20;1.58;;;20.80;74.30;;;;;;5026477;28;20128;-36
2023/07/18 01:16:27;;;;;;;2.33;1.75;;;;;;;;;;5027739;28;20045;-38
2023/07/18 01:18:54;;;;;;;2.78;1.83;;;21.40;75.10;;;;;;5027776;28;20102;-40
2023/07/18 01:21:22;;;;;;;3.00;1.75;;;21.40;78.40;;;;;;5027734;28;20081;-37
2023/07/18 01:23:49;;;;;;;2.67;1.67;;;21.10;68.30;;;;;;5027734;28;20136;-37
2023/07/18 01:26:16;;;;;;;3.83;1.73;;;;;;;;;;5027933;28;20132;-37
2023/07/18 01:28:43;;;;;;;2.85;1.70;;;21.80;78.60;;;;;;5027641;28;20421;-40
2023/07/18 01:31:10;;;;;;;2.60;1.67;;;;;;;;;;5027678;28;20049;-39
2023/07/18 01:33:37;;;;;;;3.33;1.65;;;21.70;78.50;;;;;;5027609;28;20056;-39
2023/07/18 01:36:04;;;;;;;2.10;1.77;;;20.90;77.80;;;;;;5027326;28;20132;-39
2023/07/18 01:38:32;;;;;;;2.35;1.70;;;21.80;77.80;;;;;;5027812;28;20145;-38
2023/07/18 01:41:00;;;;;;;3.25;1.83;;;20.90;77.80;;;;;;5027611;28;20155;-39
2023/07/18 01:43:27;;;;;;;2.30;1.60;;;;;;;;;;5027186;28;20049;-35
2023/07/18 01:45:58;;;;;;;2.08;1.50;;;21.20;61.60;;;;;;5027751;28;20041;-38
2023/07/18 01:48:26;;;;;;;3.05;1.70;;;;;;;;;;5027751;28;20128;-36
2023/07/18 01:50:53;;;;;;;2.83;1.75;;;;;;;;;;5027084;28;20046;-35
2023/07/18 01:53:20;;;;;;;3.20;1.65;;;20.90;62.70;;;;;;5027338;28;20089;-39
2023/07/18 01:55:48;;;;;;;2.80;1.55;;;20.80;77.80;;;;;;5027316;28;20125;-40
2023/07/18 01:58:14;;;;;;;2.58;1.70;;;21.60;78.20;;;;;;5027893;28;20105;-40
2023/07/18 02:00:41;;;;;;;3.92;1.77;;;;;;;;;;5027192;28;20104;-37
2023/07/18 02:03:08;;;;;;;2.25;1.63;;;;;;;;;;5027294;28;20049;-35
2023/07/18 02:05:35;;;;;;;3.88;1.38;;;;;;;;;;5027317;28;20456;-36
2023/07/18 02:08:02;;;;;;;2.60;1.48;;;21.30;78.50;;;;;;5027397;28;20094;-39
2023/07/18 02:10:29;;;;;;;2.22;1.48;;;;;;;;;;5026825;28;20057;-34
2023/07/18 02:13:01;;;;;;;2.53;1.73;;;21.40;69.60;;;;;;5027099;28;20136;-36
2023/07/18 02:15:28;;;;;;;2.83;1.63;;;;;;;;;;5027073;28;20048;-35
2023/07/18 02:17:55;;;;;;;2.47;1.73;;;21.30;69.30;;;;;;5024838;28;20511;-36
2023/07/18 02:20:22;;;;;;;2.95;1.60;;;21.40;62.90;;;;;;5027280;28;20088;-37
2023/07/18 02:22:50;;;;;;;3.38;1.63;;;;;;;;;;5026490;28;20137;-38
2023/07/18 02:25:17;;;;;;;2.78;1.65;;;;;;;;;;5028907;28;20428;-39
2023/07/18 02:27:44;;;;;;;2.60;1.50;;;;;;;;;;5030529;28;20061;-35
2023/07/18 02:30:13;;;;;;;2.35;1.42;;;22.00;78.50;;;;;;5030526;28;20538;-37
2023/07/18 02:32:39;;;;;;;1.85;1.50;;;20.80;77.90;;;;;;5029772;28;20084;-38
2023/07/18 02:35:07;;;;;;;2.15;1.67;;;21.10;61.50;;;;;;5030428;28;20065;-38
2023/07/18 02:37:34;;;;;;;2.05;1.50;;;;;;;;;;5029680;28;20137;-40
2023/07/18 02:40:01;;;;;;;2.60;1.60;;;20.00;77.30;;;;;;5030143;28;20703;-38
2023/07/18 02:42:31;;;;;;;2.25;1.50;;;;;;;;;;5029856;28;20139;-36
2023/07/18 02:44:58;;;;;;;2.28;1.58;;;;;;;;;;5030291;28;20085;-34
2023/07/18 02:47:26;;;;;;;2.05;1.50;;;21.10;61.50;;;;;;5030069;28;20054;-37
2023/07/18 02:49:53;;;;;;;2.50;1.60;;;21.10;61.60;;;;;;5030095;28;20050;-39
2023/07/18 02:52:20;;;;;;;2.75;1.70;;;20.70;77.90;;;;;;5029722;28;20080;-40
2023/07/18 02:54:47;;;;;;;2.78;1.60;;;;;;;;;;5029694;28;20520;-36
2023/07/18 02:57:14;;;;;;;2.92;1.77;;;21.30;78.50;;;;;;5030005;28;20561;-37
2023/07/18 02:59:41;;;;;;;4.35;1.80;;;;;;;;;;5030029;28;20057;-35
2023/07/18 03:02:07;;;;;;;3.03;1.70;;;20.80;77.90;;;;;;5029931;28;20128;-36
2023/07/18 03:04:35;;;;;;;2.15;1.60;;;21.80;78.70;;;;;;5029749;28;20048;-37
2023/07/18 03:07:03;;;;;;;3.38;1.80;;;21.10;78.10;;;;;;5029390;28;20092;-39
2023/07/18 03:09:33;;;;;;;1.90;1.60;;;20.30;72.70;;;;;;5029881;28;20046;-38
2023/07/18 03:12:00;;;;;;;3.58;1.80;;;;;;;;;;5028278;28;20086;-37
2023/07/18 03:14:27;;;;;;;2.83;1.60;;;;;;;;;;5029245;28;20049;-37
2023/07/18 03:16:54;;;;;;;2.60;1.60;;;;;;;;;;5029838;28;20045;-39
2023/07/18 03:19:22;;;;;;;2.97;1.80;;;;;;;;;;5029906;28;20084;-37
2023/07/18 03:21:50;;;;;;;2.25;1.50;;;21.00;78.40;;;;;;5029773;28;20132;-36
2023/07/18 03:24:16;;;;;;;1.85;1.40;;;19.90;67.10;;;;;;5029750;28;20128;-38
2023/07/18 03:26:43;;;;;;;3.53;1.80;;;21.10;78.40;;;;;;5029482;28;20472;-38
2023/07/18 03:29:10;;;;;;;2.83;1.58;;;;;;;;;;5024253;28;20057;-38
2023/07/18 03:31:39;;;;;;;4.30;1.90;;;21.10;78.20;;;;;;5027637;28;20060;-39
2023/07/18 03:34:06;;;;;;;2.85;1.65;;;;;;;;;;5029628;28;20046;-37
2023/07/18 03:36:33;;;;;;;3.00;1.65;;;21.20;78.30;;;;;;5028143;28;20053;-40
2023/07/18 03:39:00;;;;;;;4.13;1.83;;;20.90;61.50;;;;;;5029477;28;20589;-34
2023/07/18 03:41:27;;;;;;;4.80;1.90;;;;;;;;;;5029306;28;20405;-35
2023/07/18 03:43:54;;;;;;;3.00;1.58;;;;;;;;;;5029312;28;20124;-35
2023/07/18 03:46:21;;;;;;;2.15;1.50;;;21.00;75.20;;;;;;5029025;28;20414;-37
2023/07/18 03:48:48;;;;;;;2.53;1.50;;;;;;;;;;5029229;28;20133;-37
2023/07/18 03:51:15;;;;;;;2.00;1.35;;;;;;;;;;5029628;28;20051;-37
2023/07/18 03:53:43;;;;;;;3.72;1.73;;;20.20;77.80;;;;;;5029218;28;20132;-40
2023/07/18 03:56:11;;;;;;;2.53;1.48;;;21.80;78.60;;;;;;5029263;28;20697;-39
2023/07/18 03:58:39;;;;;;;3.30;1.63;;;;;;;;;;5028909;28;20056;-40
2023/07/18 04:01:09;;;;;;;4.07;1.85;;;20.60;78.30;;;;;;5029001;28;20132;-36
2023/07/18 04:03:36;;;;;;;2.63;1.60;;;21.10;78.50;;;;;;5029079;28;20128;-38
2023/07/18 04:06:02;;;;;;;2.30;1.50;;;21.00;74.40;;;;;;5029163;28;20129;-39
2023/07/18 04:08:29;;;;;;;3.63;1.80;;;20.80;65.20;;;;;;5029098;28;20069;-36
2023/07/18 04:10:56;;;;;;;2.33;1.42;;;20.90;61.50;;;;;;5029095;28;20137;-35
2023/07/18 04:13:25;;;;;;;2.15;1.42;;;22.00;62.10;;;;;;5028819;28;20520;-37
2023/07/18 04:15:52;;;;;;;3.05;1.58;;;21.10;69.80;;;;;;5028423;28;20493;-35
2023/07/18 04:18:19;;;;;;;3.05;1.48;;;;;;;;;;5029182;28;20053;-39
2023/07/18 04:20:45;;;;;;;3.83;1.80;;;20.80;77.00;;;;;;5028926;28;20055;-36
2023/07/18 04:23:12;;;;;;;1.90;1.42;;;20.00;78.10;;;;;;5028560;28;20469;-40
2023/07/18 04:25:55;;;;;;;3.03;1.45;;;21.00;61.60;;;;;;5028968;28;20056;-39
2023/07/18 04:28:22;;;;;;;2.33;1.50;;;20.90;67.20;;;;;;5029113;28;20128;-35
2023/07/18 04:30:50;;;;;;;2.33;1.48;;;20.80;74.60;;;;;;5028835;28;20132;-37
2023/07/18 04:33:17;;;;;;;2.40;1.52;;;;;;;;;;5028526;28;20132;-37
2023/07/18 04:35:45;;;;;;;2.15;1.63;;;;;;;;;;5028639;28;20041;-35
2023/07/18 04:38:12;;;;;;;3.33;1.40;;;;;;;;;;5027874;28;20057;-36
2023/07/18 04:40:40;;;;;;;3.53;1.65;;;;;;;;;;5028670;28;20140;-33
2023/07/18 04:43:06;;;;;;;3.35;1.48;;;21.30;78.40;;;;;;5028246;28;20495;-39
2023/07/18 04:45:33;;;;;;;3.08;1.80;;;21.00;69.30;;;;;;5028760;28;20129;-37
2023/07/18 04:48:02;;;;;;;2.63;1.50;;;20.90;61.60;;;;;;5028183;28;20053;-37
2023/07/18 04:50:29;;;;;;;2.15;1.45;;;21.10;78.20;;;;;;5028498;28;20049;-38
2023/07/18 04:52:56;;;;;;;2.25;1.52;;;;;;;;;;5028044;28;20056;-33
2023/07/18 04:55:23;;;;;;;2.83;1.52;;;21.10;78.50;;;;;;5028550;28;20049;-31
2023/07/18 04:57:50;;;;;;;3.97;1.63;;;20.70;78.30;;;;;;5028115;28;20046;-30
2023/07/18 05:00:17;;;;;;;3.05;1.52;;;20.00;61.20;;;;;;5028437;28;20136;-33
2023/07/18 05:02:44;;;;;;;3.03;1.42;;;20.50;78.00;;;;;;5028124;28;20056;-30
2023/07/18 05:05:13;;;;;;;3.05;1.60;;;20.90;73.10;;;;;;5028151;28;20045;-31
2023/07/18 05:07:44;;;;;;;4.95;1.65;;;21.20;66.10;;;;;;5028103;28;20513;-31
2023/07/18 05:10:11;;;;;;;2.65;1.42;;;21.30;69.70;;;;;;5028704;28;20045;-32
2023/07/18 05:12:38;;;;;;;2.13;1.50;;;20.70;78.10;;;;;;5028204;28;20064;-31
2023/07/18 05:15:05;;;;;;;2.08;1.42;;;19.70;77.80;;;;;;5028239;28;20479;-30
2023/07/18 05:17:32;;;;;;;2.55;1.50;;;;;;;;;;5028401;28;20136;-31
2023/07/18 05:19:59;;;;;;;2.60;1.50;;;;;;;;;;5028131;28;20128;-34
2023/07/18 05:22:27;;;;;;;2.20;1.50;;;20.90;78.70;;;;;;5028067;28;20053;-30
2023/07/18 05:24:54;;;;;;;2.25;1.40;;;20.90;78.40;;;;;;5028372;28;20406;-31
2023/07/18 05:27:21;;;;;;;3.35;1.75;;;21.60;79.00;;;;;;5028245;28;20136;-30
2023/07/18 05:29:48;;;;;;;2.35;1.63;;;20.40;78.40;;;;;;5028111;28;20514;-31
2023/07/18 05:32:15;;;;;;;2.63;1.60;;;;;;;;;;5027837;28;20128;-32
2023/07/18 05:34:42;;;;;;;3.03;1.40;;;;;;;;;;5027859;28;20060;-33
2023/07/18 05:37:10;;;;;;;2.85;1.50;;;20.80;78.70;;;;;;5027800;28;20049;-31
2023/07/18 05:39:38;;;;;;;4.32;1.73;;;21.10;77.00;;;;;;5027834;28;20061;-31
2023/07/18 05:42:05;;;;;;;5.32;1.63;;;20.90;78.50;;;;;;5028093;28;20049;-32
2023/07/18 05:44:32;;;;;;;1.88;1.58;;;;;;;;;;5027827;28;20133;-33
2023/07/18 05:46:59;;;;;;;2.70;1.50;;;;;;;;;;5027601;28;20125;-35
2023/07/18 05:49:26;;;;;;;3.03;1.73;;;20.60;65.10;;;;;;5024532;28;20088;-32
2023/07/18 05:51:53;;;;;;;1.58;1.20;;;21.10;78.90;;;;;;5016765;28;20046;-30
2023/07/18 05:54:20;;;;;;;3.30;1.50;;;;;;;;;;5017665;28;20116;-32
2023/07/18 05:56:48;;;;;;;3.00;1.40;;;20.90;61.70;;;;;;5018468;28;20050;-32
2023/07/18 05:59:15;;;;;;;3.78;1.30;;;20.90;78.20;;;;;;5007436;28;20049;-30
2023/07/18 06:01:42;;;;;;;2.50;1.55;;;21.60;72.20;;;;;;5016469;28;20113;-30
2023/07/18 06:04:10;;;;;;;2.83;1.60;;;;;;;;;;5020334;28;20395;-33
2023/07/18 06:06:38;;;;;;;3.38;1.80;;;20.90;78.20;;;;;;5019999;28;20383;-31
2023/07/18 06:09:05;;;;;;;3.03;1.48;;;20.80;78.60;;;;;;5019006;28;20740;-30
2023/07/18 06:11:32;;;;;;;2.72;1.52;;;20.60;78.30;;;;;;5011485;28;20103;-31
2023/07/18 06:14:00;;;;;;;4.28;1.48;;;20.90;61.70;;;;;;5010964;28;20137;-37
2023/07/18 06:16:27;;;;;;;3.70;1.58;;;21.10;68.90;;;;;;5011439;28;20045;-32
2023/07/18 06:18:54;;;;;;;3.47;1.42;;;20.90;61.80;;;;;;5028627;28;20498;-33
2023/07/18 06:21:21;;;;;;;2.15;1.40;;;21.30;66.50;;;;;;5030856;28;20456;-32
2023/07/18 06:23:49;;;;;;;3.08;1.75;;;20.70;78.60;;;;;;5027818;28;20617;-31
2023/07/18 06:26:16;;;;;;;3.65;1.77;;;20.20;78.40;;;;;;5021711;28;20048;-30
2023/07/18 06:28:43;;;;;;;2.45;1.40;;;;;;;;;;5019918;28;20144;-35
2023/07/18 06:31:12;;;;;;;1.75;1.40;;;20.70;78.10;;;;;;5017771;28;20045;-31
2023/07/18 06:33:38;;;;;;;2.72;1.60;;;21.50;79.10;;;;;;5030304;28;20076;-30
2023/07/18 06:36:05;;;;;;;3.72;1.45;;;;;;;;;;5030350;28;20052;-30
2023/07/18 06:38:32;;;;;;;3.85;1.60;;;20.50;65.80;;;;;;5030525;28;20490;-30
2023/07/18 06:40:59;;;;;;;2.50;1.55;;;;;;;;;;5030592;28;20137;-32
2023/07/18 06:43:27;;;;;;;4.00;1.63;;;21.10;78.80;;;;;;5030035;28;20169;-31
2023/07/18 06:45:54;;;;;;;3.30;1.60;;;20.80;64.70;;;;;;5030477;28;20042;-33
2023/07/18 06:48:22;;;;;;;3.08;1.67;;;20.90;61.90;;;;;;5030862;28;20049;-32
2023/07/18 06:50:49;;;;;;;2.05;1.50;;;;;;;;;;5030635;28;20133;-31
2023/07/18 06:53:17;;;;;;;2.72;1.40;;;21.90;69.40;;;;;;5030347;28;20185;-32
2023/07/18 06:55:43;;;;;;;3.08;1.85;;;20.60;66.30;;;;;;5030216;28;20421;-31
2023/07/18 06:58:10;;;;;;;2.38;1.55;;;;;;;;;;5030089;28;20061;-36
2023/07/18 07:00:38;;;;;;;3.03;1.60;;;21.40;78.90;;;;;;5030380;28;20140;-31
2023/07/18 07:03:05;;;;;;;3.75;1.75;;;20.70;78.80;;;;;;5027330;28;20121;-30
2023/07/18 07:05:37;;;;;;;2.47;1.40;;;20.90;62.00;;;;;;5020971;28;20050;-37
2023/07/18 07:08:05;;;;;;;3.05;1.60;;;;;;;;;;5020581;28;20054;-35
2023/07/18 07:10:32;;;;;;;4.07;1.70;;;21.20;77.90;;;;;;5018765;28;20121;-30
2023/07/18 07:12:59;;;;;;;2.38;1.35;;;;;;;;;;5026898;28;20106;-35
2023/07/18 07:15:26;;;;;;;2.97;1.75;;;;;;;;;;5030173;28;20055;-31
2023/07/18 07:17:53;;;;;;;3.13;1.50;;;;;;;;;;5029936;28;20053;-33
2023/07/18 07:20:20;;;;;;;3.67;1.77;;;;;;;;;;5029999;28;20045;-31
2023/07/18 07:22:49;;;;;;;5.10;1.80;;;21.20;76.50;;;;;;5029858;28;20045;-31
2023/07/18 07:25:16;;;;;;;4.72;1.83;;;21.20;78.80;;;;;;5029803;28;20132;-31
2023/07/18 07:27:43;;;;;;;2.42;1.50;;;;;;;;;;5029873;28;20133;-31
2023/07/18 07:30:15;;;;;;;2.97;1.58;;;21.00;62.00;;;;;;5029866;28;20417;-32
2023/07/18 07:32:41;;;;;;;2.53;1.50;;;21.00;69.70;;;;;;5029646;28;20053;-32
2023/07/18 07:35:09;;;;;;;3.97;1.48;;;20.60;65.60;;;;;;5029674;28;20046;-30
2023/07/18 07:37:36;;;;;;;2.60;1.50;;;21.00;76.10;;;;;;5028934;28;20060;-31
2023/07/18 07:40:06;;;;;;;1.83;1.20;;;21.10;62.10;;;;;;5029042;28;20570;-33
2023/07/18 07:42:33;;;;;;;3.15;1.40;;;21.20;78.50;;;;;;5022963;28;20042;-32
2023/07/18 07:45:00;;;;;;;2.42;1.40;;;;;;;;;;5028692;28;20084;-34
2023/07/18 07:47:27;;;;;;;3.45;1.40;;;21.00;78.90;;;;;;5016914;28;20136;-29
2023/07/18 07:49:54;;;;;;;2.20;1.40;;;;;;;;;;5010771;28;20053;-35
2023/07/18 07:52:21;;;;;;;1.85;1.20;;;21.10;77.00;;;;;;5009991;28;20073;-31
2023/07/18 07:54:48;;;;;;;2.53;1.20;;;;;;;;;;5011902;28;20137;-35
2023/07/18 07:57:16;;;;;;;2.97;1.30;;;21.80;70.90;;;;;;5009588;28;20395;-31
2023/07/18 07:59:44;;;;;;;2.58;1.40;;;21.00;61.90;;;;;;5009906;28;20133;-33
2023/07/18 08:02:13;;;;;;;2.22;1.40;;;;;;;;;;5009521;28;20149;-38
2023/07/18 08:04:41;;;;;;;3.00;1.55;;;21.00;62.00;;;;;;5009369;28;20604;-32
2023/07/18 08:07:08;;;;;;;2.67;1.45;;;;;;;;;;5009694;28;20077;-38
2023/07/18 08:09:36;;;;;;;3.25;1.60;;;22.00;79.30;;;;;;5010878;28;20125;-30
2023/07/18 08:12:03;;;;;;;4.00;1.70;;;21.10;78.80;;;;;;5009353;28;20054;-31
2023/07/18 08:14:32;;;;;;;2.80;1.55;;;20.80;63.20;;;;;;5009237;28;20132;-33
2023/07/18 08:16:59;;;;;;;2.83;1.30;;;;;;;;;;5009244;28;20049;-34
2023/07/18 08:19:26;;;;;;;2.83;1.35;;;;;;;;;;5009561;28;20093;-32
2023/07/18 08:21:53;;;;;;;2.97;1.45;;;;;;;;;;5009060;28;20050;-34
2023/07/18 08:24:20;;;;;;;4.03;1.27;;;20.20;78.60;;;;;;5009150;28;20046;-31
2023/07/18 08:26:47;;;;;;;1.75;1.20;;;;;;;;;;5009101;28;20077;-35
2023/07/18 08:29:14;;;;;;;2.72;1.42;;;20.20;78.10;;;;;;5010344;28;20128;-30
2023/07/18 08:31:42;;;;;;;3.50;1.40;;;21.10;62.00;;;;;;5009363;28;20050;-36
2023/07/18 08:34:09;;;;;;;3.97;1.40;;;;;;;;;;5008871;28;20153;-35
2023/07/18 08:36:39;;;;;;;3.35;1.52;;;;;;;;;;5015565;28;20049;-33
2023/07/18 08:39:07;;;;;;;3.97;1.20;;;21.10;71.30;;;;;;5013611;28;20052;-31
2023/07/18 08:41:34;;;;;;;3.45;1.38;;;;;;;;;;5007265;28;20054;-31
2023/07/18 08:44:01;;;;;;;2.75;1.48;;;;;;;;;;5007178;28;20137;-34
2023/07/18 08:46:28;;;;;;;2.58;1.20;;;;;;;;;;5017249;28;20081;-33
2023/07/18 08:48:56;;;;;;;9.15;1.60;;;21.20;61.70;;;;;;5027315;28;20049;-31
2023/07/18 08:51:23;;;;;;;2.38;1.27;;;21.70;68.60;;;;;;5011786;28;20058;-31
2023/07/18 08:53:50;;;;;;;1.98;1.30;;;;;;;;;;5006968;28;20056;-34
2023/07/18 08:56:17;;;;;;;3.08;1.23;;;22.20;79.20;;;;;;5008608;28;20042;-31
2023/07/18 08:58:44;;;;;;;2.00;1.30;;;;;;;;;;5008937;28;20137;-36
2023/07/18 09:01:11;;;;;;;3.13;1.20;;;;;;;;;;5008990;28;20125;-32
2023/07/18 09:03:38;;;;;;;3.17;1.40;;;;;;;;;;5008604;28;20061;-36
2023/07/18 09:06:17;;;;;;;4.97;1.85;;;22.20;78.90;;;;;;5017557;28;20050;-32
2023/07/18 09:08:44;;;;;;;2.05;1.20;;;;;;;;;;5011921;28;20061;-35
2023/07/18 09:11:12;;;;;;;2.65;1.30;;;;;;;;;;5021295;28;20046;-35
2023/07/18 09:13:40;;;;;;;3.10;1.17;;;21.20;73.80;;;;;;5018280;28;20056;-31
2023/07/18 09:16:12;;;;;;;2.63;1.40;;;21.10;61.90;;;;;;5028357;28;20049;-37
2023/07/18 09:18:39;;;;;;;2.75;1.40;;;;;;;;;;5012465;28;20057;-35
2023/07/18 09:21:11;;;;;;;3.25;1.42;;;21.50;78.60;;;;;;5041013;27;20056;-39
2023/07/18 09:23:40;;;;;;;2.92;1.30;;;21.40;78.40;;;;;;5008215;28;20081;-37
2023/07/18 09:26:09;;;;;;;2.97;1.25;;;21.10;61.80;;;;;;5016046;28;20052;-34
2023/07/18 09:28:36;;;;;;;3.17;1.42;;;22.00;79.20;;;;;;5012772;28;20491;-38
2023/07/18 09:31:02;;;;;;;2.65;1.23;;;21.10;78.40;;;;;;5008548;28;20134;-39
2023/07/18 09:33:29;;;;;;;2.88;1.20;;;21.50;75.00;;;;;;5012826;28;20125;-35
2023/07/18 09:35:58;;;;;;;3.17;1.40;;;21.30;61.60;;;;;;5022496;28;20049;-39
2023/07/18 09:38:26;;;;;;;2.28;1.30;;;21.00;62.40;;;;;;5031267;28;20072;-36
2023/07/18 09:40:53;;;;;;;3.85;1.40;;;21.50;78.30;;;;;;5027707;28;20049;-37
2023/07/18 09:43:19;;;;;;;2.05;1.10;;;21.70;68.60;;;;;;5021003;28;20124;-36
2023/07/18 09:45:46;;;;;;;2.05;1.30;;;21.60;75.80;;;;;;5020247;28;20120;-36
2023/07/18 09:48:13;;;;;;;2.15;1.20;;;20.50;77.40;;;;;;5024639;28;20052;-39
2023/07/18 09:50:40;;;;;;;2.55;1.40;;;;;;;;;;5028678;28;20133;-38
2023/07/18 09:53:07;;;;;;;3.42;1.40;;;;;;;;;;5031041;28;20080;-35
2023/07/18 09:55:35;;;;;;;2.65;1.20;;;22.10;69.00;;;;;;5031202;28;20045;-39
2023/07/18 09:58:02;;;;;;;2.38;1.30;;;22.30;68.30;;;;;;5031424;28;20077;-36
2023/07/18 10:00:29;;;;;;;2.55;1.33;;;21.40;77.30;;;;;;5031384;28;20053;-40
2023/07/18 10:02:56;;;;;;;2.67;1.30;;;21.90;77.90;;;;;;5031121;28;20667;-37
2023/07/18 10:05:22;;;;;;;2.10;1.15;;;21.40;77.20;;;;;;5029464;28;20743;-37
2023/07/18 10:07:49;;;;;;;2.40;1.20;;;21.10;77.50;;;;;;5028503;28;20121;-38
2023/07/18 10:10:16;;;;;;;1.98;1.30;;;;;;;;;;5029031;28;20072;-34
2023/07/18 10:13:00;;;;;;;1.17;1.00;;;21.60;61.00;;;;;;5030959;28;20080;-34
2023/07/18 10:15:27;;;;;;;2.20;1.35;;;22.60;78.00;;;;;;5031112;28;20053;-34
2023/07/18 10:17:54;;;;;;;2.28;1.27;;;21.40;77.50;;;;;;5030788;28;20052;-32
2023/07/18 10:20:22;;;;;;;1.73;1.10;;;21.90;63.70;;;;;;5031015;28;20136;-34
2023/07/18 10:22:50;;;;;;;2.03;1.15;;;21.30;77.30;;;;;;5030838;28;20049;-35
2023/07/18 10:25:18;;;;;;;2.13;1.30;;;21.70;61.70;;;;;;5030996;28;20516;-34
2023/07/18 10:27:46;;;;;;;3.15;1.20;;;21.50;61.10;;;;;;5029179;28;20056;-36
2023/07/18 10:30:16;;;;;;;2.03;1.13;;;21.70;77.90;;;;;;5030840;28;20201;-31
2023/07/18 10:32:44;;;;;;;2.45;1.50;;;21.70;65.10;;;;;;5030227;28;20665;-32
2023/07/18 10:35:11;;;;;;;2.40;1.27;;;21.50;61.20;;;;;;5027406;28;20534;-37
2023/07/18 10:37:43;;;;;;;1.80;1.38;;;21.80;76.40;;;;;;5018866;28;20050;-33
2023/07/18 10:40:10;;;;;;;2.53;1.10;;;21.50;61.30;;;;;;5019129;28;20046;-34
2023/07/18 10:42:38;;;;;;;2.28;1.20;;;;;;;;;;5020242;28;20067;-35
2023/07/18 10:45:05;;;;;;;2.35;1.40;;;21.40;77.70;;;;;;5020247;28;20046;-32
2023/07/18 10:47:35;;;;;;;3.88;1.30;;;21.30;78.10;;;;;;5020613;28;20128;-33
2023/07/18 10:50:02;;;;;;;2.30;1.25;;;22.20;65.00;;;;;;5020115;28;20048;-33
2023/07/18 10:52:29;;;;;;;1.80;1.20;;;;;;;;;;5021109;28;20053;-34
2023/07/18 10:54:57;;;;;;;3.72;1.55;;;21.50;78.40;;;;;;5018699;28;20125;-31
2023/07/18 10:57:25;;;;;;;2.95;1.45;;;20.90;67.10;;;;;;5018392;28;20056;-33
2023/07/18 10:59:52;;;;;;;2.25;1.33;;;21.40;61.70;;;;;;5020917;28;20046;-35
2023/07/18 11:02:19;;;;;;;3.78;1.83;;;21.90;78.30;;;;;;5018965;28;20129;-31
2023/07/18 11:04:47;;;;;;;2.53;1.30;;;21.40;67.00;;;;;;5020084;28;20053;-32
2023/07/18 11:07:14;;;;;;;4.10;1.50;;;22.10;69.90;;;;;;5018080;28;20049;-32
2023/07/18 11:09:41;;;;;;;4.35;1.50;;;20.40;77.80;;;;;;5015700;28;20395;-31
2023/07/18 11:12:08;;;;;;;4.93;1.80;;;22.30;78.40;;;;;;5014155;28;20077;-31
2023/07/18 11:14:38;;;;;;;3.65;1.70;;;21.60;78.50;;;;;;5017768;28;20520;-31
2023/07/18 11:17:10;;;;;;;4.28;1.63;;;21.80;78.20;;;;;;5010265;28;20048;-31
2023/07/18 11:19:37;;;;;;;4.80;1.70;;;21.40;65.20;;;;;;5061234;27;20136;-34
2023/07/18 11:22:05;;;;;;;5.85;1.80;;;20.70;66.80;;;;;;5094884;27;20122;-35
2023/07/18 11:24:32;;;;;;;6.43;1.88;;;;;;;;;;5024366;27;20469;-31
2023/07/18 11:27:12;;;;;;;7.43;2.03;;;21.50;74.60;;;;;;5010545;28;20149;-32
2023/07/18 11:29:39;;;;;;;8.23;2.17;;;;;;;;;;5018892;28;20049;-35
2023/07/18 11:32:07;;;;;;;6.50;2.00;;;21.60;61.40;;;;;;5017952;28;20128;-31
2023/07/18 11:34:34;;;;;;;6.75;1.95;;;22.70;78.30;;;;;;5019341;28;20107;-31
2023/07/18 11:37:01;;;;;;;5.63;2.40;;;;;;;;;;5012619;28;20065;-36
2023/07/18 11:39:31;;;;;;;3.38;1.73;;;21.40;72.10;;;;;;5020401;28;20132;-32
2023/07/18 11:42:05;;;;;;;4.75;1.70;;;21.80;78.10;;;;;;5020441;28;20069;-32
2023/07/18 11:44:32;;;;;;;5.75;2.20;;;;;;;;;;5020353;28;20128;-39
2023/07/18 11:46:59;;;;;;;4.38;1.90;;;;;;;;;;5017424;28;20129;-38
2023/07/18 11:49:35;;;;;;;3.63;1.90;;;21.80;63.60;;;;;;5009750;28;20141;-40
2023/07/18 11:52:03;;;;;;;7.28;1.80;;;22.60;77.90;;;;;;5009836;28;20129;-38
2023/07/18 11:54:33;;;;;;;4.63;1.92;;;21.70;77.40;;;;;;5009481;28;20125;-39
2023/07/18 11:57:01;;;;;;;5.43;1.60;;;;;;;;;;5008745;28;20056;-37
2023/07/18 11:59:28;;;;;;;5.07;1.92;;;;;;;;;;5026830;28;20122;-38
2023/07/18 12:01:54;;;;;;;5.10;2.08;;;22.70;67.00;;;;;;5029205;28;20130;-40
2023/07/18 12:04:21;;;;;;;5.38;1.90;;;21.70;64.50;;;;;;5029073;28;20128;-40
2023/07/18 12:06:48;;;;;;;4.22;1.88;;;21.60;65.90;;;;;;5028905;28;20045;-38
2023/07/18 12:09:15;;;;;;;3.13;1.65;;;21.60;70.20;;;;;;5027335;28;20132;-39
2023/07/18 12:11:44;;;;;;;3.80;1.85;;;21.90;61.00;;;;;;5009881;28;20141;-38
2023/07/18 12:14:10;;;;;;;4.88;1.80;;;21.70;77.50;;;;;;5009131;28;20056;-40
2023/07/18 12:16:37;;;;;;;4.13;1.80;;;22.30;77.50;;;;;;5009216;28;20054;-39
2023/07/18 12:19:04;;;;;;;3.28;1.50;;;22.70;68.90;;;;;;5023742;28;20175;-40
2023/07/18 12:21:31;;;;;;;6.28;1.85;;;21.80;77.40;;;;;;5029171;28;20129;-41
2023/07/18 12:23:58;;;;;;;3.72;1.45;;;21.80;77.30;;;;;;5028786;28;20141;-40
2023/07/18 12:26:25;;;;;;;3.45;1.50;;;21.80;63.50;;;;;;5028980;28;20136;-39
2023/07/18 12:28:54;;;;;;;2.90;1.58;;;21.80;76.90;;;;;;5016495;28;20050;-33
2023/07/18 12:31:20;;;;;;;3.40;1.63;;;21.80;63.40;;;;;;5009300;28;20054;-34
2023/07/18 12:33:47;;;;;;;3.47;1.50;;;;;;;;;;5009212;28;20479;-34
2023/07/18 12:36:15;;;;;;;4.35;1.70;;;;;;;;;;5023277;28;20132;-33
2023/07/18 12:38:42;;;;;;;2.47;1.40;;;22.40;66.50;;;;;;5017311;28;20129;-32
2023/07/18 12:41:08;;;;;;;3.08;1.50;;;21.40;77.10;;;;;;5008995;28;20129;-32
2023/07/18 12:43:35;;;;;;;2.90;1.60;;;;;;;;;;5019699;28;20486;-33
2023/07/18 12:46:05;;;;;;;3.58;1.67;;;21.90;77.00;;;;;;5015992;28;20411;-34
2023/07/18 12:48:34;;;;;;;3.22;1.60;;;;;;;;;;5028637;28;20132;-36
2023/07/18 12:51:00;;;;;;;2.08;1.50;;;21.70;76.90;;;;;;5028912;28;20132;-32
2023/07/18 12:53:28;;;;;;;3.60;1.70;;;;;;;;;;5028451;28;20094;-35
2023/07/18 12:55:54;;;;;;;2.42;1.50;;;22.00;77.20;;;;;;5028250;28;20069;-33
2023/07/18 12:58:22;;;;;;;2.45;1.40;;;;;;;;;;5028273;28;20046;-33
2023/07/18 13:00:48;;;;;;;3.13;1.50;;;22.30;77.70;;;;;;5021434;28;20098;-31
2023/07/18 13:03:16;;;;;;;2.40;1.40;;;21.90;60.80;;;;;;5008507;28;20142;-35
2023/07/18 13:05:44;;;;;;;2.08;1.40;;;;;;;;;;5008477;28;20145;-35
2023/07/18 13:08:11;;;;;;;4.50;1.30;;;;;;;;;;5009221;28;20057;-32
2023/07/18 13:10:38;;;;;;;2.17;1.25;;;;;;;;;;5018020;28;20118;-33
2023/07/18 13:13:06;;;;;;;2.17;1.30;;;22.50;64.10;;;;;;5018893;28;20059;-33
2023/07/18 13:15:32;;;;;;;1.67;1.23;;;21.80;77.00;;;;;;5014256;28;20574;-32
2023/07/18 13:17:59;;;;;;;2.45;1.50;;;21.00;76.70;;;;;;5018782;28;20045;-32
2023/07/18 13:20:27;;;;;;;2.28;1.50;;;21.70;61.40;;;;;;5018965;28;20421;-35
2023/07/18 13:22:55;;;;;;;3.35;1.50;;;;;;;;;;5014783;28;20080;-35